Data for 12/20/2008

Time Sea-Level Adjusted Pressure Absolute Pressure Temperature Relative Humidity Dew Point   
(mb) (inHg) (mb) (inHg) (C) (F) (%) (C) (F)
00:05 1017 30.03 846 24.98 -22.2 -7.9 80 -24.7 -12.5
00:10 1017 30.03 846 24.98 -22.2 -7.9 80 -24.8 -12.6
00:15 1017 30.03 846 24.98 -22.2 -8 80 -24.9 -12.8
00:20 1017 30.03 846 24.98 -22.5 -8.4 81 -24.9 -12.8
00:25 1017 30.03 846 24.98 -22.5 -8.5 81 -25 -13
00:30 1017 30.03 846 24.98 -22.5 -8.5 81 -25 -12.9
00:35 1017 30.03 846 24.98 -22.5 -8.5 80 -25 -13
00:40 1017 30.03 846 24.98 -22.6 -8.7 81 -25 -13.1
00:45 1017 30.03 846 24.98 -22.6 -8.7 81 -25.1 -13.1
00:50 1017 30.03 846 24.98 -22.7 -8.9 80 -25.3 -13.5
00:55 1017 30.03 846 24.98 -22.9 -9.2 81 -25.3 -13.6
01:00 1017 30.03 846 24.98 -22.9 -9.3 81 -25.4 -13.6
01:05 1017 30.03 846 24.98 -23 -9.4 82 -25.4 -13.6
01:10 1017 30.03 846 24.98 -23.1 -9.5 81 -25.4 -13.8
01:15 1017 30.03 846 24.98 -23.1 -9.5 81 -25.5 -13.8
01:20 1017 30.03 846 24.98 -23.1 -9.6 81 -25.5 -13.9
01:25 1017 30.03 846 24.98 -23 -9.4 81 -25.4 -13.7
01:30 1017 30.03 846 24.98 -22.7 -8.8 80 -25.3 -13.5
01:35 1017 30.03 846 24.98 -22.8 -9 80 -25.3 -13.5
01:40 1017 30.03 846 24.98 -22.8 -9 81 -25.2 -13.4
01:45 1017 30.03 846 24.98 -22.8 -9 80 -25.3 -13.6
01:50 1017 30.03 846 24.98 -22.8 -9.1 81 -25.3 -13.5
01:55 1017 30.03 846 24.98 -22.9 -9.2 81 -25.3 -13.5
02:00 1017 30.03 846 24.98 -23 -9.4 78 -25.9 -14.6
02:05 1017 30.03 846 24.98 -23.5 -10.4 78 -26.4 -15.5
02:10 1017 30.03 846 24.98 -24 -11.2 79 -26.7 -16.1
02:15 1017 30.03 846 24.98 -24.2 -11.6 81 -26.6 -15.9
02:20 1017 30.03 846 24.98 -24.1 -11.4 79 -26.8 -16.2
02:25 1017 30.03 846 24.98 -24.1 -11.4 81 -26.5 -15.6
02:30 1017 30.03 846 24.98 -24 -11.1 80 -26.5 -15.7
02:35 1017 30.03 846 24.98 -24.1 -11.4 80 -26.6 -15.9
02:40 1017 30.03 846 24.98 -24.2 -11.5 80 -26.7 -16.1
02:45 1017 30.03 846 24.98 -24.3 -11.7 79 -26.9 -16.4
02:50 1017 30.03 846 24.98 -24.5 -12 78 -27.3 -17.1
02:55 1017 30.03 846 24.98 -24.6 -12.3 78 -27.4 -17.3
03:00 1017 30.03 846 24.98 -24.7 -12.4 77 -27.6 -17.7
03:05 1017 30.03 846 24.98 -25 -13 79 -27.7 -17.8
03:10 1017 30.03 846 24.98 -25 -13 79 -27.6 -17.7
03:15 1017 30.03 846 24.98 -24.8 -12.6 79 -27.5 -17.4
03:20 1017 30.03 846 24.98 -24.7 -12.4 79 -27.4 -17.4
03:25 1017 30.03 846 24.98 -24.7 -12.5 77 -27.6 -17.7
03:30 1017 30.03 846 24.98 -24.9 -12.7 77 -27.7 -17.9
03:35 1017 30.03 846 24.98 -25 -13.1 77 -27.9 -18.3
03:40 1017 30.03 846 24.98 -25.1 -13.3 77 -28.1 -18.6
03:45 1017 30.03 846 24.98 -25.3 -13.6 78 -28.1 -18.5
03:50 1017 30.03 846 24.98 -25.4 -13.8 80 -28 -18.3
03:55 1017 30.03 846 24.98 -25.4 -13.6 81 -27.7 -17.9
04:00 1017 30.03 846 24.98 -25.2 -13.4 81 -27.6 -17.7
04:05 1017 30.03 846 24.98 -25.2 -13.3 82 -27.4 -17.3
04:10 1017 30.03 846 24.98 -24.9 -12.9 82 -27.2 -17
04:15 1017 30.03 846 24.98 -24.9 -12.8 81 -27.3 -17.2
04:20 1017 30.03 846 24.98 -24.9 -12.9 80 -27.4 -17.4
04:25 1017 30.03 846 24.98 -24.9 -12.9 82 -27.2 -17
04:30 1017 30.03 846 24.98 -25.2 -13.3 79 -27.7 -17.9
04:35 1017 30.03 846 24.98 -25.3 -13.5 78 -28.1 -18.6
04:40 1017 30.03 846 24.98 -25.5 -13.9 79 -28.1 -18.6
04:45 1017 30.03 846 24.98 -25.4 -13.8 80 -28 -18.3
04:50 1017 30.03 846 24.98 -25.4 -13.6 79 -28 -18.4
04:55 1017 30.03 846 24.98 -25.4 -13.7 79 -28 -18.4
05:00 1017 30.03 846 24.98 -25.3 -13.6 79 -28 -18.4
05:05 1017 30.03 846 24.98 -25.3 -13.6 79 -27.9 -18.3
05:10 1017 30.03 846 24.98 -25.4 -13.6 79 -28 -18.4
05:15 1017 30.03 846 24.98 -25.5 -13.8 80 -28 -18.4
05:20 1017 30.03 846 24.98 -25.5 -13.8 79 -28.1 -18.5
05:25 1017 30.03 846 24.98 -25.4 -13.8 79 -28.1 -18.5
05:30 1017 30.03 846 24.98 -25.4 -13.7 79 -28 -18.4
05:35 1017 30.03 846 24.98 -25.3 -13.5 79 -27.9 -18.2
05:40 1017 30.03 846 24.98 -25.2 -13.3 79 -27.8 -18
05:45 1017 30.03 846 24.98 -25.1 -13.2 79 -27.8 -18.1
05:50 1017 30.03 846 24.98 -25.1 -13.2 79 -27.8 -18.1
05:55 1017 30.03 846 24.98 -25.1 -13.2 79 -27.8 -18
06:00 1017 30.03 846 24.98 -25.1 -13.1 79 -27.7 -17.8
06:05 1017 30.03 846 24.98 -25 -13 79 -27.7 -17.8
06:10 1017 30.03 846 24.98 -24.9 -12.8 80 -27.4 -17.4
06:15 1017 30.03 846 24.98 -24.8 -12.6 80 -27.3 -17.2
06:20 1017 30.03 846 24.98 -24.8 -12.7 81 -27.2 -17
06:25 1017 30.03 846 24.98 -24.5 -12.2 80 -27.1 -16.8
06:30 1017 30.03 846 24.98 -24.3 -11.8 80 -26.9 -16.3
06:35 1017 30.03 846 24.98 -24.3 -11.7 80 -26.8 -16.2
06:40 1017 30.03 846 24.98 -24.2 -11.6 79 -26.9 -16.4
06:45 1017 30.03 846 24.98 -24.4 -11.9 80 -27 -16.5
06:50 1017 30.03 846 24.98 -24.5 -12.2 79 -27.2 -16.9
06:55 1017 30.03 846 24.98 -24.7 -12.5 80 -27.3 -17.1
07:00 1017 30.03 846 24.98 -24.6 -12.3 79 -27.3 -17.1
07:05 1017 30.03 846 24.98 -24.7 -12.5 80 -27.2 -17
07:10 1017 30.03 846 24.98 -24.6 -12.2 79 -27.2 -17
07:15 1017 30.03 846 24.98 -24.7 -12.5 79 -27.4 -17.4
07:20 1017 30.03 846 24.98 -25 -13 81 -27.4 -17.4
07:25 1017 30.03 846 24.98 -25.1 -13.1 81 -27.5 -17.5
07:30 1017 30.03 846 24.98 -25.1 -13.2 81 -27.5 -17.5
07:35 1017 30.03 846 24.98 -25.1 -13.1 80 -27.6 -17.7
07:40 1017 30.03 846 24.98 -25 -12.9 80 -27.5 -17.5
07:45 1017 30.03 846 24.98 -24.8 -12.6 81 -27.2 -17
07:50 1017 30.03 846 24.98 -24.5 -12.1 79 -27.2 -17
07:55 1017 30.03 846 24.98 -24.6 -12.3 80 -27.1 -16.9
08:00 1017 30.03 847 25.01 -24.6 -12.3 79 -27.2 -17
08:05 1017 30.03 847 25.01 -24.6 -12.4 79 -27.3 -17.2
08:10 1017 30.03 847 25.01 -24.8 -12.7 79 -27.4 -17.4
08:15 1017 30.03 847 25.01 -24.7 -12.4 80 -27.2 -17
08:20 1017 30.03 847 25.01 -24.6 -12.3 78 -27.4 -17.3
08:25 1018 30.06 847 25.01 -24.8 -12.7 78 -27.7 -17.8
08:30 1018 30.06 847 25.01 -25.4 -13.6 79 -27.9 -18.3
08:35 1018 30.06 847 25.01 -25.3 -13.6 80 -27.9 -18.1
08:40 1018 30.06 847 25.01 -25.3 -13.5 80 -27.7 -17.9
08:45 1018 30.06 847 25.01 -24.8 -12.7 79 -27.5 -17.4
08:50 1018 30.06 847 25.01 -24.8 -12.6 78 -27.5 -17.5
08:55 1018 30.06 847 25.01 -24.7 -12.5 79 -27.4 -17.3
09:00 1018 30.06 847 25.01 -24.6 -12.2 79 -27.3 -17.1
09:05 1018 30.06 847 25.01 -24.6 -12.3 78 -27.4 -17.3
09:10 1018 30.06 847 25.01 -24.7 -12.5 79 -27.4 -17.3
09:15 1018 30.06 847 25.01 -24.6 -12.3 79 -27.3 -17.1
09:20 1018 30.06 847 25.01 -24.4 -11.9 79 -27.1 -16.7
09:25 1018 30.06 847 25.01 -24.4 -11.9 78 -27.2 -17
09:30 1018 30.06 847 25.01 -24.5 -12 79 -27.2 -16.9
09:35 1018 30.06 848 25.04 -24.3 -11.7 79 -26.9 -16.5
09:40 1018 30.06 848 25.04 -24.3 -11.7 78 -27.1 -16.7
09:45 1018 30.06 848 25.04 -24.2 -11.5 79 -26.8 -16.3
09:50 1018 30.06 848 25.04 -23.9 -11.1 79 -26.6 -15.9
09:55 1019 30.09 848 25.04 -24 -11.1 78 -26.7 -16.1
10:00 1019 30.09 848 25.04 -24 -11.1 79 -26.6 -15.9
10:05 1019 30.09 848 25.04 -23.8 -10.8 79 -26.5 -15.6
10:10 1019 30.09 848 25.04 -23.6 -10.5 79 -26.3 -15.4
10:15 1019 30.09 848 25.04 -23.4 -10.2 79 -26.1 -15.1
10:20 1019 30.09 848 25.04 -23 -9.4 79 -25.7 -14.3
10:25 1019 30.09 848 25.04 -22.8 -9 79 -25.5 -13.9
10:30 1019 30.09 848 25.04 -22.8 -9 77 -25.8 -14.4
10:35 1019 30.09 848 25.04 -23 -9.5 79 -25.8 -14.4
10:40 1019 30.09 848 25.04 -23.1 -9.5 77 -26 -14.8
10:45 1019 30.09 848 25.04 -23.1 -9.6 78 -25.9 -14.6
10:50 1019 30.09 848 25.04 -22.9 -9.3 77 -25.9 -14.6
10:55 1019 30.09 848 25.04 -22.8 -9 77 -25.8 -14.4
11:00 1019 30.09 848 25.04 -22.7 -8.9 76 -25.9 -14.6
11:05 1019 30.09 848 25.04 -22.6 -8.7 77 -25.7 -14.2
11:10 1019 30.09 848 25.04 -22.5 -8.4 77 -25.5 -13.8
11:15 1019 30.09 848 25.04 -22 -7.6 73 -25.6 -14.2
11:20 1019 30.09 848 25.04 -22.3 -8.1 76 -25.5 -13.8
11:25 1019 30.09 848 25.04 -22.2 -7.9 76 -25.4 -13.7
11:30 1019 30.09 848 25.04 -22 -7.6 75 -25.3 -13.5
11:35 1019 30.09 848 25.04 -21.6 -6.9 74 -25.1 -13.2
11:40 1019 30.09 848 25.04 -21.3 -6.3 72 -25.1 -13.2
11:45 1019 30.09 849 25.07 -21.2 -6.2 73 -24.9 -12.8
11:50 1019 30.09 849 25.07 -21.4 -6.5 72 -25.1 -13.2
11:55 1019 30.09 849 25.07 -21.4 -6.6 73 -25.1 -13.3
12:00 1019 30.09 849 25.07 -21.6 -6.9 71 -25.5 -13.9
12:05 1020 30.12 849 25.07 -21.6 -6.9 71 -25.5 -13.9
12:10 1020 30.12 849 25.07 -21.2 -6.2 69 -25.5 -13.8
12:15 1020 30.12 849 25.07 -21.2 -6.1 69 -25.5 -13.9
12:20 1020 30.12 849 25.07 -21.1 -6 68 -25.6 -14
12:25 1020 30.12 849 25.07 -21.6 -6.9 71 -25.5 -14
12:30 1020 30.12 849 25.07 -21.5 -6.8 68 -25.9 -14.6
12:35 1020 30.12 849 25.07 -21.6 -6.9 68 -26 -14.7
12:40 1020 30.12 849 25.07 -21.5 -6.7 68 -25.8 -14.5
12:45 1020 30.12 849 25.07 -21.5 -6.7 66 -26.2 -15.2
12:50 1020 30.12 849 25.07 -22 -7.5 69 -26.3 -15.3
12:55 1020 30.12 849 25.07 -21.7 -7 65 -26.5 -15.7
13:00 1020 30.12 849 25.07 -21.6 -6.9 68 -26.1 -15
13:05 1020 30.12 849 25.07 -20.9 -5.7 65 -26 -14.7
13:10 1020 30.12 849 25.07 -21.6 -6.8 66 -26.3 -15.4
13:15 1020 30.12 849 25.07 -22.3 -8.2 68 -26.6 -16
13:20 1020 30.12 849 25.07 -22.6 -8.6 71 -26.6 -15.8
13:25 1020 30.12 849 25.07 -22.7 -8.8 70 -26.7 -16
13:30 1020 30.12 849 25.07 -22.7 -8.8 69 -26.9 -16.5
13:35 1020 30.12 849 25.07 -21.9 -7.3 67 -26.5 -15.6
13:40 1020 30.12 849 25.07 -21.4 -6.5 67 -26 -14.8
13:45 1020 30.12 849 25.07 -21.2 -6.2 65 -26.2 -15.1
13:50 1020 30.12 849 25.07 -21.2 -6.1 65 -26.2 -15.2
13:55 1020 30.12 849 25.07 -21.4 -6.5 65 -26.3 -15.3
14:00 1020 30.12 849 25.07 -21.4 -6.4 65 -26.3 -15.3
14:05 1020 30.12 849 25.07 -21.1 -5.9 64 -26.1 -15
14:10 1020 30.12 849 25.07 -21.1 -6 65 -26 -14.8
14:15 1020 30.12 850 25.1 -20.8 -5.4 63 -26.1 -15
14:20 1020 30.12 850 25.1 -20.8 -5.5 63 -26.1 -14.9
14:25 1021 30.15 850 25.1 -21 -5.8 65 -26.1 -14.9
14:30 1021 30.15 850 25.1 -20.5 -4.8 62 -25.9 -14.7
14:35 1021 30.15 850 25.1 -20.3 -4.6 61 -26 -14.7
14:40 1021 30.15 850 25.1 -20.3 -4.6 61 -26 -14.8
14:45 1021 30.15 850 25.1 -20.4 -4.7 61 -26.1 -15
14:50 1021 30.15 850 25.1 -20.6 -5.1 62 -26.1 -14.9
14:55 1021 30.15 850 25.1 -20.4 -4.7 60 -26.2 -15.1
15:00 1021 30.15 850 25.1 -20.6 -5 62 -26.1 -14.9
15:05 1021 30.15 850 25.1 -20.7 -5.2 62 -26.1 -15
15:10 1021 30.15 850 25.1 -20.9 -5.5 63 -26.1 -15
15:15 1021 30.15 851 25.13 -20.6 -5.1 61 -26.2 -15.2
15:20 1021 30.15 851 25.13 -20.6 -5.1 62 -26 -14.8
15:25 1021 30.15 851 25.13 -21.4 -6.4 65 -26.3 -15.3
15:30 1022 30.18 851 25.13 -21.7 -7.1 66 -26.5 -15.7
15:35 1022 30.18 851 25.13 -21.8 -7.3 67 -26.3 -15.4
15:40 1022 30.18 851 25.13 -22 -7.6 67 -26.5 -15.7
15:45 1022 30.18 851 25.13 -22.3 -8.1 68 -26.7 -16
15:50 1022 30.18 851 25.13 -22.4 -8.3 69 -26.6 -15.8
15:55 1022 30.18 851 25.13 -22.7 -8.9 70 -26.7 -16.1
16:00 1022 30.18 851 25.13 -22.7 -8.9 70 -26.7 -16.1
16:05 1022 30.18 851 25.13 -22.7 -8.8 70 -26.8 -16.2
16:10 1022 30.18 851 25.13 -22.7 -8.9 70 -26.8 -16.2
16:15 1022 30.18 851 25.13 -22.7 -8.9 70 -26.8 -16.2
16:20 1022 30.18 851 25.13 -23 -9.4 73 -26.6 -16
16:25 1022 30.18 851 25.13 -23.2 -9.8 72 -26.9 -16.4
16:30 1022 30.18 851 25.13 -23.4 -10.1 73 -27 -16.5
16:35 1022 30.18 851 25.13 -23.7 -10.6 74 -27.1 -16.8
16:40 1022 30.18 852 25.16 -24 -11.2 75 -27.2 -17
16:45 1022 30.18 852 25.16 -24.1 -11.3 76 -27.2 -16.9
16:50 1023 30.21 852 25.16 -24.1 -11.3 76 -27.2 -16.9
16:55 1023 30.21 852 25.16 -23.9 -11.1 76 -27.1 -16.7
17:00 1023 30.21 852 25.16 -23.9 -10.9 76 -27 -16.6
17:05 1023 30.21 852 25.16 -23.9 -10.9 76 -27 -16.6
17:10 1023 30.21 852 25.16 -24.1 -11.4 76 -27.2 -16.9
17:15 1023 30.21 852 25.16 -24.2 -11.5 76 -27.3 -17.1
17:20 1023 30.21 852 25.16 -24.3 -11.8 76 -27.4 -17.3
17:25 1023 30.21 852 25.16 -24.6 -12.3 77 -27.6 -17.6
17:30 1023 30.21 852 25.16 -25 -13 79 -27.7 -17.9
17:35 1023 30.21 852 25.16 -25.1 -13.1 78 -27.8 -18.1
17:40 1023 30.21 852 25.16 -25.3 -13.5 80 -27.7 -17.9
17:45 1023 30.21 852 25.16 -25.3 -13.5 81 -27.7 -17.9
17:50 1023 30.21 852 25.16 -25.2 -13.4 80 -27.7 -17.8
17:55 1023 30.21 852 25.16 -25.1 -13.2 80 -27.6 -17.7
18:00 1023 30.21 852 25.16 -25.1 -13.2 80 -27.7 -17.8
18:05 1023 30.21 852 25.16 -25.4 -13.7 81 -27.7 -17.9
18:10 1023 30.21 852 25.16 -25.5 -14 80 -28.1 -18.5
18:15 1023 30.21 852 25.16 -25.7 -14.2 82 -27.9 -18.3
18:20 1023 30.21 852 25.16 -25.7 -14.2 79 -28.2 -18.8
18:25 1023 30.21 852 25.16 -25.9 -14.6 80 -28.4 -19.1
18:30 1023 30.21 852 25.16 -25.8 -14.4 80 -28.2 -18.8
18:35 1023 30.21 852 25.16 -25.7 -14.2 80 -28.1 -18.6
18:40 1023 30.21 852 25.16 -26 -14.9 78 -28.8 -19.8
18:45 1023 30.21 852 25.16 -26.4 -15.5 81 -28.8 -19.8
18:50 1023 30.21 852 25.16 -26.3 -15.3 82 -28.5 -19.4
18:55 1023 30.21 852 25.16 -26 -14.9 81 -28.4 -19.2
19:00 1023 30.21 853 25.19 -26 -14.8 80 -28.5 -19.4
19:05 1023 30.21 853 25.19 -26 -14.8 79 -28.7 -19.6
19:10 1023 30.21 853 25.19 -26 -14.7 78 -28.7 -19.6
19:15 1023 30.21 853 25.19 -25.8 -14.5 78 -28.6 -19.6
19:20 1024 30.24 853 25.19 -25.7 -14.2 77 -28.5 -19.3
19:25 1024 30.24 853 25.19 -25.6 -14 77 -28.5 -19.3
19:30 1024 30.24 853 25.19 -25.5 -13.9 77 -28.5 -19.3
19:35 1024 30.24 853 25.19 -25.5 -13.9 77 -28.4 -19.2
19:40 1024 30.24 853 25.19 -25.6 -14 76 -28.6 -19.5
19:45 1024 30.24 853 25.19 -26 -14.7 80 -28.5 -19.2
19:50 1024 30.24 853 25.19 -25.9 -14.6 79 -28.5 -19.4
19:55 1024 30.24 853 25.19 -25.8 -14.4 78 -28.6 -19.4
20:00 1024 30.24 853 25.19 -25.7 -14.3 77 -28.6 -19.5
20:05 1024 30.24 853 25.19 -25.8 -14.4 76 -28.8 -19.9
20:10 1024 30.24 853 25.19 -25.9 -14.6 76 -29 -20.1
20:15 1024 30.24 853 25.19 -26 -14.7 80 -28.4 -19.2
20:20 1024 30.24 853 25.19 -26 -14.8 78 -28.9 -19.9
20:25 1024 30.24 853 25.19 -26.3 -15.4 79 -29 -20.2
20:30 1024 30.24 853 25.19 -26.4 -15.5 77 -29.4 -20.8
20:35 1024 30.24 853 25.19 -26.6 -15.8 80 -29.1 -20.4
20:40 1024 30.24 853 25.19 -26 -14.9 78 -28.8 -19.9
20:45 1024 30.24 853 25.19 -25.9 -14.6 76 -29 -20.1
20:50 1024 30.24 853 25.19 -25.8 -14.5 75 -29.1 -20.3
20:55 1024 30.24 853 25.19 -25.8 -14.5 77 -28.8 -19.8
21:00 1024 30.24 853 25.19 -25.5 -14 76 -28.6 -19.5
21:05 1024 30.24 853 25.19 -25.6 -14 76 -28.7 -19.6
21:10 1024 30.24 853 25.19 -25.6 -14 77 -28.5 -19.4
21:15 1024 30.24 853 25.19 -25.6 -14 76 -28.6 -19.4
21:20 1024 30.24 853 25.19 -25.7 -14.2 75 -28.9 -20.1
21:25 1024 30.24 853 25.19 -26.1 -15 77 -29 -20.3
21:30 1024 30.24 853 25.19 -26.1 -14.9 75 -29.2 -20.6
21:35 1024 30.24 853 25.19 -26.1 -14.9 80 -28.6 -19.5
21:40 1024 30.24 853 25.19 -26 -14.8 77 -29 -20.1
21:45 1024 30.24 854 25.22 -26.4 -15.5 79 -29 -20.1
21:50 1024 30.24 854 25.22 -26.4 -15.6 80 -28.9 -20.1
21:55 1024 30.24 854 25.22 -26.2 -15.2 80 -28.8 -19.8
22:00 1025 30.27 854 25.22 -25.9 -14.6 78 -28.6 -19.6
22:05 1025 30.27 854 25.22 -25.8 -14.4 78 -28.5 -19.4
22:10 1025 30.27 854 25.22 -25.7 -14.2 77 -28.6 -19.5
22:15 1025 30.27 854 25.22 -25.7 -14.2 77 -28.5 -19.3
22:20 1025 30.27 854 25.22 -25.6 -14.1 77 -28.5 -19.4
22:25 1025 30.27 854 25.22 -25.7 -14.3 76 -28.7 -19.7
22:30 1025 30.27 854 25.22 -26.2 -15.1 79 -28.8 -19.9
22:35 1025 30.27 854 25.22 -26.3 -15.4 81 -28.7 -19.7
22:40 1025 30.27 854 25.22 -26.3 -15.3 80 -28.8 -19.8
22:45 1025 30.27 854 25.22 -26.1 -14.9 78 -28.8 -19.8
22:50 1025 30.27 854 25.22 -26 -14.9 80 -28.5 -19.4
22:55 1025 30.27 854 25.22 -26 -14.8 79 -28.7 -19.6
23:00 1025 30.27 854 25.22 -25.9 -14.5 80 -28.4 -19.1
23:05 1025 30.27 854 25.22 -25.7 -14.2 78 -28.5 -19.3
23:10 1025 30.27 854 25.22 -25.8 -14.5 78 -28.7 -19.6
23:15 1025 30.27 854 25.22 -26.1 -14.9 79 -28.6 -19.5
23:20 1025 30.27 854 25.22 -25.9 -14.6 80 -28.5 -19.2
23:25 1025 30.27 854 25.22 -25.9 -14.5 77 -28.8 -19.8
23:30 1025 30.27 854 25.22 -25.9 -14.7 78 -28.7 -19.7
23:35 1025 30.27 854 25.22 -25.8 -14.5 78 -28.6 -19.4
23:40 1025 30.27 854 25.22 -25.7 -14.2 78 -28.5 -19.3
23:45 1025 30.27 854 25.22 -25.6 -14 77 -28.5 -19.3
23:50 1025 30.27 854 25.22 -25.5 -13.9 77 -28.5 -19.2
23:55 1025 30.27 854 25.22 -25.5 -13.9 78 -28.3 -19
24:00 1025 30.27 854 25.22 -25.5 -13.9 78 -28.3 -19